Terminal Aerodrome Forecast
Issued by NWS

Home | Current Version | Previous Version | Text Only | Print | Product List | Glossary On
Versions: 1 2 3 4 5 6 7 8 9 10 11 12 13 14 15
000
FTUS45 KABQ 031129
TAFTCC
TAF
KTCC 031129Z 0312/0412 07005KT P6SM VCSH BKN080
     FM031400 VRB05KT P6SM SCT090
     FM031900 16009KT P6SM SCT100
     FM040000 19012KT P6SM VCSH BKN080
      TEMPO 0402/0406 5SM -TSRA OVC035CB
     FM040700 21007KT P6SM BKN100=

USA.gov is the U.S. government's official web portal to all federal, state and local government web resources and services.